Time;durP1;ratioP1;P1;durP2;ratioP2;P2;SDS_P1;SDS_P2;PMS_P1;PMS_P2;Temp;Humidity;BMP_temperature;BMP_pressure;BME280_temperature;BME280_humidity;BME280_pressure;Samples;Min_cycle;Max_cycle;Signal;HPM_P1;HPM_P2
2021/12/19 01:00:52;;;;;;;;;;;77.70;2227.20;;;;;;5834651;24;19930;31
2021/12/19 01:03:19;;;;;;;;;;;102.40;2227.20;;;;;;4789978;30;19933;-89
2021/12/19 01:05:47;;;;;;;;;;;77.20;2227.20;;;;;;4791813;30;19929;-90
2021/12/19 01:08:14;;;;;;;;;;;102.40;2227.20;;;;;;4776973;30;19920;-89
2021/12/19 01:10:42;;;;;;;;;;;102.40;2227.20;;;;;;4791951;30;19913;-89
2021/12/19 01:13:11;;;;;;;;;;;102.40;2227.20;;;;;;4792746;30;19915;-88
2021/12/19 01:15:38;;;;;;;;;;;102.40;2227.20;;;;;;4791603;30;19901;-89
2021/12/19 01:18:07;;;;;;;;;;;102.70;2227.20;;;;;;4790094;30;19914;-89
2021/12/19 01:20:44;;;;;;;;;;;102.40;2227.20;;;;;;4791444;30;19913;-88
2021/12/19 01:23:23;;;;;;;;;;;102.50;2227.20;;;;;;4791973;30;19914;-88
2021/12/19 01:25:51;;;;;;;;;;;102.50;2227.20;;;;;;4790989;30;20438;-88
2021/12/19 01:28:18;;;;;;;;;;;102.50;2227.20;;;;;;4791462;30;19914;-90
2021/12/19 01:30:46;;;;;;;;;;;102.50;2227.20;;;;;;4791177;30;19945;-89
2021/12/19 04:55:21;;;;;;;;;;;102.60;2227.20;;;;;;4792948;30;19970;-86
2021/12/19 04:58:03;;;;;;;;;;;102.50;2227.20;;;;;;4793562;30;19916;-91
2021/12/19 05:00:43;;;;;;;;;;;102.50;2227.20;;;;;;4791451;30;19916;-91
2021/12/19 05:03:32;;;;;;;;;;;102.50;2227.20;;;;;;4776825;30;19921;-89
2021/12/19 05:14:11;;;;;;;;;;;77.70;2227.20;;;;;;4792018;30;20272;-88
2021/12/19 05:16:42;;;;;;;;;;;102.40;2227.20;;;;;;4791185;30;19910;-92
2021/12/19 05:19:23;;;;;;;;;;;77.70;2227.20;;;;;;4776739;30;19965;-88
2021/12/19 05:21:58;;;;;;;;;;;102.40;2227.20;;;;;;4790733;30;20011;-88
2021/12/19 05:27:03;;;;;;;;;;;102.50;2227.20;;;;;;4791713;30;19916;-89
2021/12/19 05:29:30;;;;;;;;;;;102.40;2227.20;;;;;;4790239;30;19936;-89
2021/12/19 05:31:58;;;;;;;;;;;102.40;2227.20;;;;;;4790039;30;19909;-89
2021/12/19 05:34:29;;;;;;;;;;;77.70;2227.20;;;;;;4790121;30;19913;-89
2021/12/19 05:45:41;;;;;;;;;;;77.70;2227.20;;;;;;4789538;30;19921;-88
2021/12/19 05:48:07;;;;;;;;;;;77.70;2227.20;;;;;;4789281;30;19910;-88
2021/12/19 05:50:39;;;;;;;;;;;77.60;2227.20;;;;;;4789639;30;19910;-88
2021/12/19 05:53:10;;;;;;;;;;;77.60;2227.20;;;;;;4789521;30;19999;-88
2021/12/19 05:55:37;;;;;;;;;;;77.60;2227.20;;;;;;4790400;30;19910;-88
2021/12/19 05:58:03;;;;;;;;;;;77.60;2227.20;;;;;;4775319;30;20016;-89
2021/12/19 06:00:32;;;;;;;;;;;77.40;2227.20;;;;;;4783673;30;19910;-89
2021/12/19 06:02:59;;;;;;;;;;;77.60;2227.20;;;;;;4776255;30;19960;-86
2021/12/19 06:05:27;;;;;;;;;;;77.70;2227.20;;;;;;4776759;30;19924;-86
2021/12/19 06:07:55;;;;;;;;;;;77.70;2227.20;;;;;;4791040;30;19935;-87
2021/12/19 06:10:48;;;;;;;;;;;77.70;2227.20;;;;;;4790749;30;19910;-90
2021/12/19 06:13:17;;;;;;;;;;;77.70;2227.20;;;;;;4772686;30;19910;-89
2021/12/19 06:15:50;;;;;;;;;;;77.70;2227.20;;;;;;4774138;30;19906;-88
2021/12/19 06:18:18;;;;;;;;;;;77.70;2227.20;;;;;;4757244;30;20044;-88
2021/12/19 06:20:44;;;;;;;;;;;77.00;2227.20;;;;;;4757505;30;19910;-87
2021/12/19 06:23:09;;;;;;;;;;;103.20;2227.20;;;;;;4757650;30;19956;-87
2021/12/19 06:25:37;;;;;;;;;;;102.50;2227.20;;;;;;4757656;30;19918;-86
2021/12/19 06:28:03;;;;;;;;;;;77.70;2227.20;;;;;;4773186;30;19910;-91
2021/12/19 06:30:32;;;;;;;;;;;76.80;2227.20;;;;;;4744152;30;19914;-90
2021/12/19 06:33:00;;;;;;;;;;;77.70;2227.20;;;;;;4771063;30;19917;-88
2021/12/19 06:35:29;;;;;;;;;;;77.70;2227.20;;;;;;4755935;30;19894;-87
2021/12/19 06:37:55;;;;;;;;;;;77.70;2227.20;;;;;;4757326;30;19910;-91
2021/12/19 06:40:21;;;;;;;;;;;102.60;2227.20;;;;;;4755783;30;19940;-95
2021/12/19 06:42:51;;;;;;;;;;;77.50;2227.20;;;;;;4790422;30;19935;-87
2021/12/19 06:45:19;;;;;;;;;;;77.70;2227.20;;;;;;4790772;30;19918;-88
2021/12/19 06:47:46;;;;;;;;;;;77.70;2227.20;;;;;;4775068;30;19920;-90
2021/12/19 06:50:13;;;;;;;;;;;77.70;2227.20;;;;;;4790411;30;19910;-88
2021/12/19 06:52:40;;;;;;;;;;;77.70;2227.20;;;;;;4774098;30;19922;-87
2021/12/19 06:55:14;;;;;;;;;;;77.70;2227.20;;;;;;4789482;30;19904;-90
2021/12/19 06:58:25;;;;;;;;;;;102.40;2227.20;;;;;;4790751;29;19910;-89
2021/12/19 07:01:19;;;;;;;;;;;102.40;2227.20;;;;;;4793562;30;19893;-83
2021/12/19 07:04:08;;;;;;;;;;;102.40;2227.20;;;;;;4767175;30;19929;-83
2021/12/19 09:59:43;;;;;;;;;;;307.50;1817.60;;;;;;944875;24;20198;-86
2021/12/19 10:02:10;;;;;;;;;;;358.60;1612.80;;;;;;4755875;30;20090;-93
2021/12/19 10:04:37;;;;;;;;;;;435.70;1408.00;;;;;;4772236;30;19918;-93
2021/12/19 10:07:02;;;;;;;;;;;487.20;1152.00;;;;;;4757557;30;19910;-92
2021/12/19 10:09:28;;;;;;;;;;;538.40;1024.00;;;;;;4757355;30;20426;-91
2021/12/19 10:14:23;;;;;;;;;;;537.70;1049.60;;;;;;4772890;30;20367;-86
2021/12/19 10:16:49;;;;;;;;;;;487.00;1100.80;;;;;;4746970;30;19913;-89
2021/12/19 10:19:14;;;;;;;;;;;461.50;1177.60;;;;;;4754389;30;19910;-90
2021/12/19 10:21:40;;;;;;;;;;;487.10;1100.80;;;;;;4757052;30;19921;-89
2021/12/19 10:24:06;;;;;;;;;;;461.20;1203.20;;;;;;4756608;30;19936;-87
2021/12/19 10:26:39;;;;;;;;;;;435.80;1203.20;;;;;;4756656;30;19918;-88
2021/12/19 10:29:06;;;;;;;;;;;435.40;1280.00;;;;;;4756524;30;19914;-83
2021/12/19 10:31:32;;;;;;;;;;;436.10;1228.80;;;;;;4756729;30;19914;-89
2021/12/19 10:33:58;;;;;;;;;;;435.80;1228.80;;;;;;4758085;30;19916;-92
2021/12/19 10:36:24;;;;;;;;;;;461.20;1203.20;;;;;;4758248;30;20423;-95
2021/12/19 10:38:52;;;;;;;;;;;486.40;1152.00;;;;;;4762093;30;20373;-94
2021/12/19 10:41:22;;;;;;;;;;;435.30;1254.40;;;;;;4767311;30;19917;-93
2021/12/19 10:44:02;;;;;;;;;;;384.00;1408.00;;;;;;4783645;30;19909;-94
2021/12/19 10:46:28;;;;;;;;;;;435.70;1254.40;;;;;;4766184;30;19913;-96
2021/12/19 10:48:55;;;;;;;;;;;461.00;1203.20;;;;;;4779796;30;19914;-94
2021/12/19 10:51:21;;;;;;;;;;;486.40;1177.60;;;;;;4759188;30;19917;-95
2021/12/19 10:53:54;;;;;;;;;;;410.30;1305.60;;;;;;4759004;30;19910;-96
2021/12/19 10:56:29;;;;;;;;;;;410.20;1356.80;;;;;;4789448;30;19913;-96
2021/12/19 10:58:57;;;;;;;;;;;435.50;1254.40;;;;;;4784314;30;19910;-96
2021/12/19 11:01:29;;;;;;;;;;;384.40;1382.40;;;;;;4749888;30;19926;-94
2021/12/19 11:04:03;;;;;;;;;;;435.80;1228.80;;;;;;4761630;30;20020;-95
2021/12/19 11:06:35;;;;;;;;;;;435.70;1228.80;;;;;;4777586;30;19914;-96
2021/12/19 11:09:05;;;;;;;;;;;359.30;1433.60;;;;;;4763683;30;19909;-95
2021/12/19 11:14:48;;;;;;;;;;;333.00;1587.20;;;;;;4784942;29;20425;-94
2021/12/19 11:20:19;;;;;;;;;;;281.80;1766.40;;;;;;4762810;30;19971;-91
2021/12/19 11:22:47;;;;;;;;;;;256.60;1868.80;;;;;;4749285;30;20005;-92
2021/12/19 11:25:13;;;;;;;;;;;256.40;1868.80;;;;;;4757102;30;19918;-92
2021/12/19 11:27:41;;;;;;;;;;;256.30;1920.00;;;;;;4779519;24;19926;-93
2021/12/19 11:30:10;;;;;;;;;;;256.00;1920.00;;;;;;4781290;29;19966;-91
2021/12/19 11:32:56;;;;;;;;;;;256.00;1971.20;;;;;;4761859;30;19974;-95
2021/12/19 11:35:37;;;;;;;;;;;256.00;1945.60;;;;;;4780366;30;19941;-92
2021/12/19 11:38:44;;;;;;;;;;;256.00;1971.20;;;;;;4774044;30;19898;-94
2021/12/19 11:41:11;;;;;;;;;;;256.00;1971.20;;;;;;4771234;30;21589;-93
2021/12/19 11:43:46;;;;;;;;;;;256.00;1971.20;;;;;;4782258;30;19987;-94
2021/12/19 11:46:18;;;;;;;;;;;256.00;1971.20;;;;;;4780822;30;19923;-92
2021/12/19 11:48:45;;;;;;;;;;;256.00;1971.20;;;;;;4764098;29;19969;-93
2021/12/19 12:03:24;;;;;;;;;;;231.20;2022.40;;;;;;4788850;29;19920;-93
2021/12/19 12:24:18;;;;;;;;;;;256.50;1971.20;;;;;;4788156;30;20059;-93
2021/12/19 12:26:48;;;;;;;;;;;307.80;1792.00;;;;;;4772470;30;19909;-92
2021/12/19 12:29:18;;;;;;;;;;;307.60;1740.80;;;;;;4793266;30;19921;-92
2021/12/19 12:31:47;;;;;;;;;;;307.20;1817.60;;;;;;4763901;30;19914;-91
2021/12/19 12:34:14;;;;;;;;;;;358.60;1587.20;;;;;;4770486;29;19922;-93
2021/12/19 12:36:40;;;;;;;;;;;359.10;1484.80;;;;;;4767911;30;19910;-95
2021/12/19 12:39:10;;;;;;;;;;;359.20;1484.80;;;;;;4762709;30;19982;-94
2021/12/19 12:42:00;;;;;;;;;;;384.20;1433.60;;;;;;4907767;24;19926;-94
2021/12/19 12:44:27;;;;;;;;;;;359.10;1459.20;;;;;;4768293;30;19925;-96
2021/12/19 12:46:53;;;;;;;;;;;358.50;1587.20;;;;;;4752141;30;19910;-95
2021/12/19 12:49:34;;;;;;;;;;;384.50;1408.00;;;;;;4747947;30;20398;-94
2021/12/19 12:52:01;;;;;;;;;;;384.60;1382.40;;;;;;4751545;30;19937;-94
2021/12/19 12:54:38;;;;;;;;;;;435.70;1280.00;;;;;;4766307;30;19942;-95
2021/12/19 12:57:24;;;;;;;;;;;436.00;1228.80;;;;;;4755004;30;19914;-96
2021/12/19 12:59:51;;;;;;;;;;;461.30;1177.60;;;;;;4764876;30;20391;-95
2021/12/19 13:02:24;;;;;;;;;;;563.20;1024.00;;;;;;4753408;30;19975;-94
2021/12/19 13:04:51;;;;;;;;;;;564.00;972.80;;;;;;4740165;30;19914;-95
2021/12/19 13:07:17;;;;;;;;;;;563.50;998.40;;;;;;4747904;30;19949;-94
2021/12/19 13:10:00;;;;;;;;;;;589.20;972.80;;;;;;4752821;30;19964;-95
2021/12/19 13:12:32;;;;;;;;;;;614.40;896.00;;;;;;4756184;30;19917;-94
2021/12/19 13:14:59;;;;;;;;;;;614.50;870.40;;;;;;4787712;30;19910;-95
2021/12/19 13:17:34;;;;;;;;;;;615.10;844.80;;;;;;4763986;30;19917;-95
2021/12/19 13:20:03;;;;;;;;;;;665.90;793.60;;;;;;4786278;29;19914;-95
2021/12/19 13:22:47;;;;;;;;;;;691.20;768.00;;;;;;4762126;30;19910;-96
2021/12/19 13:25:21;;;;;;;;;;;666.40;742.40;;;;;;4759315;30;19921;-95
2021/12/19 13:27:51;;;;;;;;;;;691.80;742.40;;;;;;4758879;30;19910;-95
2021/12/19 13:30:20;;;;;;;;;;;691.50;742.40;;;;;;4758373;30;19910;-96
2021/12/19 13:32:48;;;;;;;;;;;692.00;716.80;;;;;;4774392;30;19964;-95
2021/12/19 13:35:19;;;;;;;;;;;716.90;742.40;;;;;;4771409;30;19950;-96
2021/12/19 13:37:46;;;;;;;;;;;691.50;742.40;;;;;;4750679;30;20307;-95
2021/12/19 13:40:12;;;;;;;;;;;691.80;742.40;;;;;;4757956;30;20003;-95
2021/12/19 13:42:46;;;;;;;;;;;691.50;742.40;;;;;;4762269;30;19921;-96
2021/12/19 13:45:32;;;;;;;;;;;666.50;768.00;;;;;;4772616;30;20468;-96
2021/12/19 13:48:11;;;;;;;;;;;666.10;768.00;;;;;;4791801;30;19894;-96
2021/12/19 13:50:42;;;;;;;;;;;666.10;742.40;;;;;;4760389;30;19910;-96
2021/12/19 13:53:08;;;;;;;;;;;666.10;768.00;;;;;;4758167;30;19937;-96
2021/12/19 13:55:48;;;;;;;;;;;665.90;768.00;;;;;;4774553;30;19914;-96
2021/12/19 13:58:15;;;;;;;;;;;614.40;844.80;;;;;;4767340;30;20000;-96
2021/12/19 14:00:45;;;;;;;;;;;589.00;896.00;;;;;;4764284;30;19917;-96
2021/12/19 14:03:11;;;;;;;;;;;588.90;896.00;;;;;;4769120;30;19910;-96
2021/12/19 14:05:45;;;;;;;;;;;538.30;972.80;;;;;;4767470;30;19925;-96
2021/12/19 14:08:26;;;;;;;;;;;436.00;1177.60;;;;;;4768813;30;20010;-96
2021/12/19 14:11:17;;;;;;;;;;;384.30;1356.80;;;;;;4768928;30;19909;-94
2021/12/19 14:22:08;;;;;;;;;;;281.80;1740.80;;;;;;5264184;24;19925;-93
2021/12/19 14:25:07;;;;;;;;;;;282.40;1664.00;;;;;;4785511;30;19904;-96
2021/12/19 14:27:41;;;;;;;;;;;307.20;1689.60;;;;;;4779630;30;19921;-95
2021/12/19 14:30:24;;;;;;;;;;;281.80;1766.40;;;;;;4770488;30;20348;-94
2021/12/19 14:32:58;;;;;;;;;;;256.60;1817.60;;;;;;4779612;30;20249;-93
2021/12/19 14:35:36;;;;;;;;;;;256.20;1894.40;;;;;;4748613;30;19905;-92
2021/12/19 14:38:03;;;;;;;;;;;231.30;1920.00;;;;;;4785127;29;19897;-93
2021/12/19 14:40:55;;;;;;;;;;;231.10;1971.20;;;;;;4838005;24;19922;-93
2021/12/19 14:46:24;;;;;;;;;;;230.90;2048.00;;;;;;4775517;30;20015;-92
2021/12/19 14:48:52;;;;;;;;;;;230.90;2073.60;;;;;;4764149;30;20429;-94
2021/12/19 14:51:26;;;;;;;;;;;230.80;2099.20;;;;;;4750893;30;20283;-93
2021/12/19 14:54:01;;;;;;;;;;;230.70;2150.40;;;;;;4766188;30;19914;-92
2021/12/19 14:56:28;;;;;;;;;;;230.60;2150.40;;;;;;4764029;30;19976;-91
2021/12/19 14:58:57;;;;;;;;;;;230.50;2150.40;;;;;;4772277;29;19923;-94
2021/12/19 15:01:27;;;;;;;;;;;230.50;2176.00;;;;;;4768030;30;19909;-91
2021/12/19 15:04:07;;;;;;;;;;;230.40;2150.40;;;;;;4747189;30;19993;-95
2021/12/19 15:06:38;;;;;;;;;;;230.40;2176.00;;;;;;5596562;24;19935;-93
2021/12/19 17:22:10;;;;;;;;;;;179.40;2252.80;;;;;;4805322;24;19926;-64
2021/12/19 17:24:35;;;;;;;;;;;179.50;2252.80;;;;;;4766415;30;20375;-58
2021/12/19 17:27:01;;;;;;;;;;;179.40;2252.80;;;;;;4772146;30;19917;-57
2021/12/19 17:29:27;;;;;;;;;;;179.40;2252.80;;;;;;4767744;30;19913;-57
2021/12/19 17:31:52;;;;;;;;;;;179.40;2252.80;;;;;;4765926;30;19949;-57
2021/12/19 17:34:18;;;;;;;;;;;179.40;2252.80;;;;;;4763696;30;19921;-58
2021/12/19 17:36:44;;;;;;;;;;;179.30;2252.80;;;;;;4765470;30;20013;-56
2021/12/19 17:39:10;;;;;;;;;;;179.30;2252.80;;;;;;4760381;30;20257;-58
2021/12/19 17:41:36;;;;;;;;;;;179.30;2252.80;;;;;;4765025;30;20009;-57
2021/12/19 17:44:02;;;;;;;;;;;179.20;2252.80;;;;;;4768302;30;19966;-57
2021/12/19 17:46:30;;;;;;;;;;;179.20;2252.80;;;;;;4768522;30;20000;-56
2021/12/19 17:48:57;;;;;;;;;;;154.50;2252.80;;;;;;4767217;30;19930;-56
2021/12/19 17:51:23;;;;;;;;;;;154.40;2252.80;;;;;;4772937;30;19991;-57
2021/12/19 17:53:49;;;;;;;;;;;154.40;2252.80;;;;;;4772758;30;20415;-57
2021/12/19 17:56:16;;;;;;;;;;;154.40;2252.80;;;;;;4772603;30;19919;-61
2021/12/19 17:58:42;;;;;;;;;;;154.40;2252.80;;;;;;4771527;30;19966;-57
2021/12/19 18:01:09;;;;;;;;;;;154.30;2252.80;;;;;;4771911;30;19916;-57
2021/12/19 18:03:37;;;;;;;;;;;154.30;2252.80;;;;;;4772549;30;19909;-57
2021/12/19 18:06:04;;;;;;;;;;;154.20;2252.80;;;;;;4772282;30;19940;-61
2021/12/19 18:08:30;;;;;;;;;;;154.20;2252.80;;;;;;4759265;30;19910;-57
2021/12/19 18:10:56;;;;;;;;;;;154.10;2252.80;;;;;;4754982;30;20385;-57
2021/12/19 18:13:22;;;;;;;;;;;153.90;2252.80;;;;;;4754882;30;19951;-57
2021/12/19 18:15:48;;;;;;;;;;;154.00;2252.80;;;;;;4771873;30;20275;-57
2021/12/19 18:18:14;;;;;;;;;;;153.90;2252.80;;;;;;4772060;30;20279;-57
2021/12/19 18:20:40;;;;;;;;;;;153.90;2252.80;;;;;;4771943;30;19917;-57
2021/12/19 18:23:06;;;;;;;;;;;153.90;2252.80;;;;;;4772084;30;19921;-57
2021/12/19 18:25:34;;;;;;;;;;;153.90;2252.80;;;;;;4772037;30;20375;-66
2021/12/19 18:28:00;;;;;;;;;;;153.90;2252.80;;;;;;4772288;30;20256;-58
2021/12/19 18:30:26;;;;;;;;;;;153.80;2252.80;;;;;;4777027;30;20004;-58
2021/12/19 18:32:54;;;;;;;;;;;153.80;2252.80;;;;;;4789514;30;19914;-57
2021/12/19 18:35:24;;;;;;;;;;;153.80;2252.80;;;;;;4789542;30;19910;-57
2021/12/19 18:37:55;;;;;;;;;;;153.80;2252.80;;;;;;4789587;30;19913;-58
2021/12/19 18:40:21;;;;;;;;;;;153.80;2252.80;;;;;;4774180;30;19914;-58
2021/12/19 18:48:01;;;;;;;;;;;153.80;2252.80;;;;;;4769177;30;20418;-59
2021/12/19 18:55:47;;;;;;;;;;;153.70;2252.80;;;;;;4771684;30;19910;-58
2021/12/19 18:58:17;;;;;;;;;;;153.70;2252.80;;;;;;4771435;30;19917;-63
2021/12/19 19:00:47;;;;;;;;;;;153.70;2252.80;;;;;;4771215;30;19917;-63
2021/12/19 19:03:23;;;;;;;;;;;153.70;2252.80;;;;;;4769361;30;20464;-59
2021/12/19 19:05:51;;;;;;;;;;;153.80;2252.80;;;;;;4770962;30;19976;-61
2021/12/19 19:08:19;;;;;;;;;;;153.90;2252.80;;;;;;4766660;30;19951;-60
2021/12/19 19:10:45;;;;;;;;;;;153.90;2252.80;;;;;;4753236;30;19910;-58
2021/12/19 19:13:13;;;;;;;;;;;153.90;2252.80;;;;;;4763203;30;19924;-58
2021/12/19 19:15:39;;;;;;;;;;;154.00;2252.80;;;;;;4770553;30;19921;-58
2021/12/19 19:18:05;;;;;;;;;;;153.90;2252.80;;;;;;4770949;30;19909;-59
2021/12/19 19:20:30;;;;;;;;;;;153.90;2252.80;;;;;;4767997;30;19964;-60
2021/12/19 19:22:57;;;;;;;;;;;153.90;2252.80;;;;;;4762813;30;19949;-59
2021/12/19 19:25:22;;;;;;;;;;;153.80;2252.80;;;;;;4770848;30;19924;-58
2021/12/19 19:27:48;;;;;;;;;;;153.80;2252.80;;;;;;4770734;30;19909;-58
2021/12/19 19:30:15;;;;;;;;;;;153.70;2252.80;;;;;;4770365;30;19910;-58
2021/12/19 19:32:42;;;;;;;;;;;153.70;2252.80;;;;;;4771133;30;19910;-63
2021/12/19 19:35:08;;;;;;;;;;;153.60;2252.80;;;;;;4770877;30;19910;-58
2021/12/19 19:37:40;;;;;;;;;;;153.60;2252.80;;;;;;4770747;30;19916;-59
2021/12/19 19:40:20;;;;;;;;;;;153.60;2252.80;;;;;;4770683;30;19909;-59
2021/12/19 19:50:58;;;;;;;;;;;128.90;2252.80;;;;;;4765385;30;19964;-63
2021/12/19 19:53:24;;;;;;;;;;;128.90;2252.80;;;;;;4752957;30;19914;-61
2021/12/19 19:55:49;;;;;;;;;;;128.90;2252.80;;;;;;4759366;30;19925;-60
2021/12/19 19:58:15;;;;;;;;;;;128.90;2252.80;;;;;;4770747;30;19910;-60
2021/12/19 20:00:41;;;;;;;;;;;128.80;2252.80;;;;;;4773972;30;19954;-60
2021/12/19 20:03:06;;;;;;;;;;;128.80;2252.80;;;;;;4755120;30;19921;-61
2021/12/19 20:05:32;;;;;;;;;;;128.70;2252.80;;;;;;4754956;30;19922;-59
2021/12/19 20:07:58;;;;;;;;;;;128.60;2252.80;;;;;;4752676;30;19917;-59
2021/12/19 20:10:24;;;;;;;;;;;128.50;2252.80;;;;;;4752476;30;19997;-59
2021/12/19 20:12:49;;;;;;;;;;;128.30;2252.80;;;;;;4752643;30;19910;-59
2021/12/19 20:15:15;;;;;;;;;;;128.20;2252.80;;;;;;4757217;30;19914;-59
2021/12/19 20:17:42;;;;;;;;;;;128.00;2252.80;;;;;;4752525;30;20007;-60
2021/12/19 20:20:08;;;;;;;;;;;103.30;2227.20;;;;;;4753393;30;20390;-59
2021/12/19 20:22:34;;;;;;;;;;;103.20;2227.20;;;;;;4750674;30;19921;-58
2021/12/19 20:24:59;;;;;;;;;;;103.20;2227.20;;;;;;4774005;30;19917;-64
2021/12/19 20:27:25;;;;;;;;;;;103.20;2227.20;;;;;;4773695;30;19932;-59
2021/12/19 20:29:51;;;;;;;;;;;103.20;2227.20;;;;;;4766377;30;20284;-59
2021/12/19 20:32:17;;;;;;;;;;;103.20;2227.20;;;;;;4756112;30;19933;-59
2021/12/19 20:34:43;;;;;;;;;;;103.20;2227.20;;;;;;4760486;30;19964;-59
2021/12/19 20:37:08;;;;;;;;;;;103.20;2227.20;;;;;;4757378;30;19912;-58
2021/12/19 20:39:34;;;;;;;;;;;103.20;2227.20;;;;;;4773377;30;19909;-59
2021/12/19 20:42:00;;;;;;;;;;;103.10;2227.20;;;;;;4773360;30;19910;-60
2021/12/19 20:44:25;;;;;;;;;;;103.00;2227.20;;;;;;4773504;30;19918;-58
2021/12/19 20:46:51;;;;;;;;;;;102.90;2227.20;;;;;;4757416;30;19925;-58
2021/12/19 20:49:18;;;;;;;;;;;102.80;2227.20;;;;;;4773370;30;20040;-62
2021/12/19 20:51:44;;;;;;;;;;;102.80;2227.20;;;;;;4773005;30;19910;-58
2021/12/19 20:54:11;;;;;;;;;;;102.80;2227.20;;;;;;4773259;30;20051;-60
2021/12/19 20:56:37;;;;;;;;;;;102.70;2227.20;;;;;;4773187;30;19910;-59
2021/12/19 20:59:03;;;;;;;;;;;102.70;2227.20;;;;;;4772887;30;19910;-59
2021/12/19 21:01:29;;;;;;;;;;;102.70;2227.20;;;;;;4772863;30;20363;-59
2021/12/19 21:03:54;;;;;;;;;;;102.70;2227.20;;;;;;4773151;30;20013;-58
2021/12/19 21:06:20;;;;;;;;;;;102.60;2227.20;;;;;;4773368;30;19918;-62
2021/12/19 21:08:47;;;;;;;;;;;102.60;2227.20;;;;;;4787257;30;19910;-58
2021/12/19 21:11:14;;;;;;;;;;;102.50;2227.20;;;;;;4773480;30;19910;-60
2021/12/19 21:13:57;;;;;;;;;;;102.50;2227.20;;;;;;4773372;30;19910;-59
2021/12/19 21:19:27;;;;;;;;;;;102.50;2227.20;;;;;;4765661;30;19921;-58
2021/12/19 21:21:53;;;;;;;;;;;102.40;2227.20;;;;;;4755154;30;19925;-58
2021/12/19 21:24:20;;;;;;;;;;;102.40;2227.20;;;;;;4755464;30;20372;-62
2021/12/19 21:26:46;;;;;;;;;;;102.40;2227.20;;;;;;4755500;30;19972;-59
2021/12/19 21:29:11;;;;;;;;;;;77.70;2227.20;;;;;;4755417;30;19914;-58
2021/12/19 21:31:37;;;;;;;;;;;102.40;2227.20;;;;;;4764379;30;19914;-60
2021/12/19 21:34:03;;;;;;;;;;;77.70;2227.20;;;;;;4762063;30;19949;-61
2021/12/19 21:39:13;;;;;;;;;;;77.60;2227.20;;;;;;4773369;30;19960;-58
2021/12/19 21:41:38;;;;;;;;;;;77.60;2227.20;;;;;;4772712;30;20379;-62
2021/12/19 21:44:07;;;;;;;;;;;77.60;2227.20;;;;;;4772944;30;19910;-57
2021/12/19 21:46:34;;;;;;;;;;;77.50;2227.20;;;;;;4772842;30;19918;-60
2021/12/19 21:49:00;;;;;;;;;;;77.50;2227.20;;;;;;4772817;30;19909;-58
2021/12/19 21:51:26;;;;;;;;;;;77.50;2227.20;;;;;;4772597;30;19910;-61
2021/12/19 21:53:51;;;;;;;;;;;77.40;2227.20;;;;;;4772680;30;19918;-57
2021/12/19 21:56:17;;;;;;;;;;;77.40;2227.20;;;;;;4772646;30;19983;-61
2021/12/19 21:58:43;;;;;;;;;;;77.40;2227.20;;;;;;4772604;30;19983;-62
2021/12/19 22:01:10;;;;;;;;;;;77.40;2227.20;;;;;;4769803;30;20271;-53
2021/12/19 22:03:37;;;;;;;;;;;77.40;2227.20;;;;;;4762066;30;20009;-54
2021/12/19 22:06:02;;;;;;;;;;;77.40;2227.20;;;;;;4763795;30;19918;-60
2021/12/19 22:08:28;;;;;;;;;;;77.40;2227.20;;;;;;4754663;30;19910;-54
2021/12/19 22:10:54;;;;;;;;;;;77.40;2227.20;;;;;;4754680;30;19960;-53
2021/12/19 22:15:48;;;;;;;;;;;77.40;2227.20;;;;;;4754535;30;19910;-59
2021/12/19 22:18:14;;;;;;;;;;;77.30;2227.20;;;;;;4756682;30;19917;-54
2021/12/19 22:20:41;;;;;;;;;;;77.30;2227.20;;;;;;4754689;30;20391;-60
2021/12/19 22:23:07;;;;;;;;;;;77.30;2227.20;;;;;;4753383;30;20431;-54
2021/12/19 22:25:33;;;;;;;;;;;77.40;2227.20;;;;;;4756730;30;20020;-53
2021/12/19 22:28:00;;;;;;;;;;;77.40;2227.20;;;;;;4756830;30;19914;-60
2021/12/19 22:30:26;;;;;;;;;;;77.40;2227.20;;;;;;4754548;30;19914;-54
2021/12/19 22:32:52;;;;;;;;;;;77.40;2227.20;;;;;;4754683;30;19949;-53
2021/12/19 22:35:18;;;;;;;;;;;77.50;2227.20;;;;;;4754699;30;19946;-53
2021/12/19 22:37:43;;;;;;;;;;;77.50;2227.20;;;;;;4754433;30;19946;-54
2021/12/19 22:40:11;;;;;;;;;;;77.50;2227.20;;;;;;4754369;30;20368;-60
2021/12/19 22:42:37;;;;;;;;;;;77.50;2227.20;;;;;;4754316;30;20369;-53
2021/12/19 22:45:04;;;;;;;;;;;77.60;2227.20;;;;;;4753824;30;19918;-54
2021/12/19 22:47:29;;;;;;;;;;;77.60;2227.20;;;;;;4754128;30;19910;-60
2021/12/19 22:49:56;;;;;;;;;;;77.60;2227.20;;;;;;4756903;30;19920;-58
2021/12/19 22:52:22;;;;;;;;;;;77.60;2227.20;;;;;;4771874;30;19914;-53
2021/12/19 22:54:48;;;;;;;;;;;77.60;2227.20;;;;;;4771803;30;20004;-60
2021/12/19 22:57:14;;;;;;;;;;;77.60;2227.20;;;;;;4771808;30;19917;-53
2021/12/19 22:59:40;;;;;;;;;;;77.60;2227.20;;;;;;4771779;30;19910;-54
2021/12/19 23:02:07;;;;;;;;;;;77.60;2227.20;;;;;;4771757;30;19910;-60
2021/12/19 23:04:34;;;;;;;;;;;77.60;2227.20;;;;;;4771549;30;20016;-60
2021/12/19 23:07:00;;;;;;;;;;;77.60;2227.20;;;;;;4771538;30;19921;-58
2021/12/19 23:09:26;;;;;;;;;;;77.60;2227.20;;;;;;4771624;30;19910;-59
2021/12/19 23:11:57;;;;;;;;;;;77.60;2227.20;;;;;;4771508;30;19914;-54
2021/12/19 23:14:34;;;;;;;;;;;77.60;2227.20;;;;;;4763614;30;20428;-53
2021/12/19 23:17:07;;;;;;;;;;;77.60;2227.20;;;;;;4753975;30;20010;-54
2021/12/19 23:19:33;;;;;;;;;;;77.60;2227.20;;;;;;4753713;30;19917;-59
2021/12/19 23:21:59;;;;;;;;;;;77.70;2227.20;;;;;;4753697;30;20403;-60
2021/12/19 23:24:25;;;;;;;;;;;77.70;2227.20;;;;;;4753602;30;19949;-53
2021/12/19 23:26:50;;;;;;;;;;;77.70;2227.20;;;;;;4753591;30;19921;-54
2021/12/19 23:29:16;;;;;;;;;;;102.40;2227.20;;;;;;4753563;30;19910;-60
2021/12/19 23:31:42;;;;;;;;;;;102.40;2227.20;;;;;;4753491;30;19917;-54
2021/12/19 23:34:12;;;;;;;;;;;102.40;2227.20;;;;;;4753446;30;19910;-59
2021/12/19 23:36:51;;;;;;;;;;;102.40;2227.20;;;;;;4753432;30;19917;-60
2021/12/19 23:39:36;;;;;;;;;;;77.70;2227.20;;;;;;4753445;30;19914;-60
2021/12/19 23:45:19;;;;;;;;;;;77.60;2227.20;;;;;;4753221;30;20260;-53
2021/12/19 23:47:21;;;;;;;;;;;77.50;2227.20;;;;;;4749794;30;19910;-54
2021/12/19 23:49:46;;;;;;;;;;;77.50;2227.20;;;;;;4753285;30;19910;-54
2021/12/19 23:52:13;;;;;;;;;;;77.40;2227.20;;;;;;4753386;30;19916;-54
2021/12/19 23:54:39;;;;;;;;;;;77.50;2227.20;;;;;;4753235;30;19913;-54
2021/12/19 23:57:05;;;;;;;;;;;77.50;2227.20;;;;;;4752685;30;19914;-54
2021/12/19 23:59:31;;;;;;;;;;;77.40;2227.20;;;;;;4753160;30;19983;-54
